sensor_id;sensor_type;location;lat;lon;timestamp;P1;durP1;ratioP1;P2;durP2;ratioP2
51792;SDS011;37850;53.178;6.376;2023-06-10T00:00:45;9.82;;;4.50;;
51792;SDS011;37850;53.178;6.376;2023-06-10T00:03:11;9.98;;;4.75;;
51792;SDS011;37850;53.178;6.376;2023-06-10T00:05:38;9.40;;;4.45;;
51792;SDS011;37850;53.178;6.376;2023-06-10T00:08:04;12.23;;;4.57;;
51792;SDS011;37850;53.178;6.376;2023-06-10T00:10:34;12.68;;;4.60;;
51792;SDS011;37850;53.178;6.376;2023-06-10T00:13:00;11.85;;;4.32;;
51792;SDS011;37850;53.178;6.376;2023-06-10T00:15:27;10.23;;;4.18;;
51792;SDS011;37850;53.178;6.376;2023-06-10T00:17:53;9.23;;;4.53;;
51792;SDS011;37850;53.178;6.376;2023-06-10T00:20:20;10.23;;;4.55;;
51792;SDS011;37850;53.178;6.376;2023-06-10T00:22:46;11.63;;;5.07;;
51792;SDS011;37850;53.178;6.376;2023-06-10T00:25:13;10.10;;;4.70;;
51792;SDS011;37850;53.178;6.376;2023-06-10T00:27:40;8.50;;;4.20;;
51792;SDS011;37850;53.178;6.376;2023-06-10T00:30:06;9.48;;;4.68;;
51792;SDS011;37850;53.178;6.376;2023-06-10T00:32:33;11.93;;;5.10;;
51792;SDS011;37850;53.178;6.376;2023-06-10T00:34:59;10.35;;;4.97;;
51792;SDS011;37850;53.178;6.376;2023-06-10T00:37:25;12.57;;;5.10;;
51792;SDS011;37850;53.178;6.376;2023-06-10T00:39:50;12.18;;;4.97;;
51792;SDS011;37850;53.178;6.376;2023-06-10T00:42:16;13.15;;;5.00;;
51792;SDS011;37850;53.178;6.376;2023-06-10T00:44:42;11.00;;;5.03;;
51792;SDS011;37850;53.178;6.376;2023-06-10T00:47:07;15.05;;;4.97;;
51792;SDS011;37850;53.178;6.376;2023-06-10T00:49:33;10.70;;;4.90;;
51792;SDS011;37850;53.178;6.376;2023-06-10T00:52:00;12.45;;;5.28;;
51792;SDS011;37850;53.178;6.376;2023-06-10T00:54:27;12.75;;;6.28;;
51792;SDS011;37850;53.178;6.376;2023-06-10T00:56:53;12.55;;;5.75;;
51792;SDS011;37850;53.178;6.376;2023-06-10T00:59:20;11.93;;;5.65;;
51792;SDS011;37850;53.178;6.376;2023-06-10T01:01:46;12.48;;;5.63;;
51792;SDS011;37850;53.178;6.376;2023-06-10T01:04:14;12.73;;;6.05;;
51792;SDS011;37850;53.178;6.376;2023-06-10T01:10:24;12.98;;;5.78;;
51792;SDS011;37850;53.178;6.376;2023-06-10T01:12:24;10.43;;;5.53;;
51792;SDS011;37850;53.178;6.376;2023-06-10T01:15:16;16.00;;;5.00;;
51792;SDS011;37850;53.178;6.376;2023-06-10T01:20:28;12.63;;;5.32;;
51792;SDS011;37850;53.178;6.376;2023-06-10T01:22:57;10.40;;;5.57;;
51792;SDS011;37850;53.178;6.376;2023-06-10T01:25:24;13.15;;;5.57;;
51792;SDS011;37850;53.178;6.376;2023-06-10T01:28:17;11.60;;;6.00;;
51792;SDS011;37850;53.178;6.376;2023-06-10T01:33:35;13.35;;;5.85;;
51792;SDS011;37850;53.178;6.376;2023-06-10T01:36:04;12.00;;;5.22;;
51792;SDS011;37850;53.178;6.376;2023-06-10T01:38:32;13.65;;;6.00;;
51792;SDS011;37850;53.178;6.376;2023-06-10T01:41:04;12.13;;;6.22;;
51792;SDS011;37850;53.178;6.376;2023-06-10T01:43:34;14.68;;;6.13;;
51792;SDS011;37850;53.178;6.376;2023-06-10T01:46:00;10.85;;;5.78;;
51792;SDS011;37850;53.178;6.376;2023-06-10T01:48:26;14.15;;;5.53;;
51792;SDS011;37850;53.178;6.376;2023-06-10T01:50:52;11.25;;;4.95;;
51792;SDS011;37850;53.178;6.376;2023-06-10T01:53:18;11.55;;;5.13;;
51792;SDS011;37850;53.178;6.376;2023-06-10T01:55:44;13.02;;;5.28;;
51792;SDS011;37850;53.178;6.376;2023-06-10T01:58:10;12.10;;;5.32;;
51792;SDS011;37850;53.178;6.376;2023-06-10T02:00:35;12.00;;;5.53;;
51792;SDS011;37850;53.178;6.376;2023-06-10T02:03:01;14.10;;;4.82;;
51792;SDS011;37850;53.178;6.376;2023-06-10T02:05:26;12.30;;;4.72;;
51792;SDS011;37850;53.178;6.376;2023-06-10T02:07:52;8.90;;;4.43;;
51792;SDS011;37850;53.178;6.376;2023-06-10T02:10:18;10.52;;;4.80;;
51792;SDS011;37850;53.178;6.376;2023-06-10T02:12:44;10.82;;;4.68;;
51792;SDS011;37850;53.178;6.376;2023-06-10T02:15:09;10.38;;;4.65;;
51792;SDS011;37850;53.178;6.376;2023-06-10T02:17:35;10.63;;;4.80;;
51792;SDS011;37850;53.178;6.376;2023-06-10T02:20:01;10.82;;;4.50;;
51792;SDS011;37850;53.178;6.376;2023-06-10T02:22:29;11.10;;;4.57;;
51792;SDS011;37850;53.178;6.376;2023-06-10T02:24:55;13.38;;;4.35;;
51792;SDS011;37850;53.178;6.376;2023-06-10T02:27:20;9.75;;;3.97;;
51792;SDS011;37850;53.178;6.376;2023-06-10T02:29:46;13.05;;;4.78;;
51792;SDS011;37850;53.178;6.376;2023-06-10T02:32:12;13.98;;;4.57;;
51792;SDS011;37850;53.178;6.376;2023-06-10T02:34:37;10.05;;;4.32;;
51792;SDS011;37850;53.178;6.376;2023-06-10T02:37:03;15.00;;;5.30;;
51792;SDS011;37850;53.178;6.376;2023-06-10T02:39:29;9.75;;;4.38;;
51792;SDS011;37850;53.178;6.376;2023-06-10T02:41:55;9.55;;;4.30;;
51792;SDS011;37850;53.178;6.376;2023-06-10T02:44:21;10.60;;;4.43;;
51792;SDS011;37850;53.178;6.376;2023-06-10T02:46:46;9.65;;;4.03;;
51792;SDS011;37850;53.178;6.376;2023-06-10T02:49:12;12.20;;;4.07;;
51792;SDS011;37850;53.178;6.376;2023-06-10T02:51:38;10.25;;;4.55;;
51792;SDS011;37850;53.178;6.376;2023-06-10T02:54:04;12.32;;;4.65;;
51792;SDS011;37850;53.178;6.376;2023-06-10T02:56:30;11.00;;;4.50;;
51792;SDS011;37850;53.178;6.376;2023-06-10T02:58:56;10.88;;;3.92;;
51792;SDS011;37850;53.178;6.376;2023-06-10T03:01:22;8.90;;;4.50;;
51792;SDS011;37850;53.178;6.376;2023-06-10T03:03:48;8.82;;;3.90;;
51792;SDS011;37850;53.178;6.376;2023-06-10T03:06:15;9.85;;;4.32;;
51792;SDS011;37850;53.178;6.376;2023-06-10T03:08:41;11.40;;;4.32;;
51792;SDS011;37850;53.178;6.376;2023-06-10T03:11:07;10.68;;;4.40;;
51792;SDS011;37850;53.178;6.376;2023-06-10T03:13:33;10.50;;;4.25;;
51792;SDS011;37850;53.178;6.376;2023-06-10T03:15:59;9.85;;;4.22;;
51792;SDS011;37850;53.178;6.376;2023-06-10T03:18:26;13.18;;;4.55;;
51792;SDS011;37850;53.178;6.376;2023-06-10T03:20:53;14.38;;;4.20;;
51792;SDS011;37850;53.178;6.376;2023-06-10T03:23:20;8.70;;;4.20;;
51792;SDS011;37850;53.178;6.376;2023-06-10T03:25:46;10.75;;;4.18;;
51792;SDS011;37850;53.178;6.376;2023-06-10T03:28:11;13.75;;;5.43;;
51792;SDS011;37850;53.178;6.376;2023-06-10T03:30:37;11.50;;;4.57;;
51792;SDS011;37850;53.178;6.376;2023-06-10T03:33:03;11.20;;;3.97;;
51792;SDS011;37850;53.178;6.376;2023-06-10T03:35:29;11.18;;;4.70;;
51792;SDS011;37850;53.178;6.376;2023-06-10T03:37:56;12.00;;;3.85;;
51792;SDS011;37850;53.178;6.376;2023-06-10T03:40:22;12.45;;;4.40;;
51792;SDS011;37850;53.178;6.376;2023-06-10T03:42:48;9.55;;;3.80;;
51792;SDS011;37850;53.178;6.376;2023-06-10T03:45:14;10.43;;;4.18;;
51792;SDS011;37850;53.178;6.376;2023-06-10T03:47:40;13.25;;;4.72;;
51792;SDS011;37850;53.178;6.376;2023-06-10T03:50:06;13.82;;;4.55;;
51792;SDS011;37850;53.178;6.376;2023-06-10T03:52:37;10.10;;;4.40;;
51792;SDS011;37850;53.178;6.376;2023-06-10T03:55:03;13.07;;;4.40;;
51792;SDS011;37850;53.178;6.376;2023-06-10T03:57:29;14.63;;;4.85;;
51792;SDS011;37850;53.178;6.376;2023-06-10T03:59:54;10.68;;;4.22;;
51792;SDS011;37850;53.178;6.376;2023-06-10T04:02:21;12.32;;;4.60;;
51792;SDS011;37850;53.178;6.376;2023-06-10T04:04:47;14.02;;;4.88;;
51792;SDS011;37850;53.178;6.376;2023-06-10T04:07:14;9.23;;;4.35;;
51792;SDS011;37850;53.178;6.376;2023-06-10T04:09:39;13.88;;;5.03;;
51792;SDS011;37850;53.178;6.376;2023-06-10T04:12:05;12.85;;;5.05;;
51792;SDS011;37850;53.178;6.376;2023-06-10T04:14:34;12.70;;;4.85;;
51792;SDS011;37850;53.178;6.376;2023-06-10T04:17:02;15.35;;;5.53;;
51792;SDS011;37850;53.178;6.376;2023-06-10T04:19:31;15.85;;;5.53;;
51792;SDS011;37850;53.178;6.376;2023-06-10T04:21:57;13.05;;;5.05;;
51792;SDS011;37850;53.178;6.376;2023-06-10T04:24:25;12.32;;;5.18;;
51792;SDS011;37850;53.178;6.376;2023-06-10T04:26:51;13.77;;;4.95;;
51792;SDS011;37850;53.178;6.376;2023-06-10T04:29:17;16.88;;;5.60;;
51792;SDS011;37850;53.178;6.376;2023-06-10T04:31:43;14.45;;;5.43;;
51792;SDS011;37850;53.178;6.376;2023-06-10T04:34:10;16.58;;;5.22;;
51792;SDS011;37850;53.178;6.376;2023-06-10T04:36:36;11.68;;;5.60;;
51792;SDS011;37850;53.178;6.376;2023-06-10T04:39:02;13.30;;;4.70;;
51792;SDS011;37850;53.178;6.376;2023-06-10T04:41:28;11.93;;;4.90;;
51792;SDS011;37850;53.178;6.376;2023-06-10T04:43:53;12.38;;;4.80;;
51792;SDS011;37850;53.178;6.376;2023-06-10T04:46:19;13.50;;;5.00;;
51792;SDS011;37850;53.178;6.376;2023-06-10T04:48:45;13.63;;;4.95;;
51792;SDS011;37850;53.178;6.376;2023-06-10T04:51:12;11.05;;;4.10;;
51792;SDS011;37850;53.178;6.376;2023-06-10T04:53:38;12.00;;;4.75;;
51792;SDS011;37850;53.178;6.376;2023-06-10T04:56:04;12.15;;;4.25;;
51792;SDS011;37850;53.178;6.376;2023-06-10T04:58:29;10.73;;;4.57;;
51792;SDS011;37850;53.178;6.376;2023-06-10T05:00:55;10.73;;;4.50;;
51792;SDS011;37850;53.178;6.376;2023-06-10T05:03:21;12.15;;;4.80;;
51792;SDS011;37850;53.178;6.376;2023-06-10T05:05:46;11.65;;;4.22;;
51792;SDS011;37850;53.178;6.376;2023-06-10T05:08:12;13.88;;;4.60;;
51792;SDS011;37850;53.178;6.376;2023-06-10T05:10:38;11.48;;;4.88;;
51792;SDS011;37850;53.178;6.376;2023-06-10T05:13:03;10.85;;;4.35;;
51792;SDS011;37850;53.178;6.376;2023-06-10T05:15:29;11.18;;;4.28;;
51792;SDS011;37850;53.178;6.376;2023-06-10T05:17:56;10.20;;;3.90;;
51792;SDS011;37850;53.178;6.376;2023-06-10T05:20:23;12.40;;;4.55;;
51792;SDS011;37850;53.178;6.376;2023-06-10T05:22:50;11.55;;;4.38;;
51792;SDS011;37850;53.178;6.376;2023-06-10T05:25:15;12.10;;;4.25;;
51792;SDS011;37850;53.178;6.376;2023-06-10T05:27:41;11.57;;;4.50;;
51792;SDS011;37850;53.178;6.376;2023-06-10T05:30:08;13.95;;;4.90;;
51792;SDS011;37850;53.178;6.376;2023-06-10T05:32:35;9.88;;;4.63;;
51792;SDS011;37850;53.178;6.376;2023-06-10T05:35:01;10.27;;;4.57;;
51792;SDS011;37850;53.178;6.376;2023-06-10T05:37:28;12.35;;;4.60;;
51792;SDS011;37850;53.178;6.376;2023-06-10T05:39:54;13.70;;;4.85;;
51792;SDS011;37850;53.178;6.376;2023-06-10T05:42:20;10.35;;;4.78;;
51792;SDS011;37850;53.178;6.376;2023-06-10T05:44:45;13.90;;;4.90;;
51792;SDS011;37850;53.178;6.376;2023-06-10T05:47:11;9.40;;;4.00;;
51792;SDS011;37850;53.178;6.376;2023-06-10T05:49:37;12.95;;;5.00;;
51792;SDS011;37850;53.178;6.376;2023-06-10T05:52:03;11.98;;;4.75;;
51792;SDS011;37850;53.178;6.376;2023-06-10T05:54:29;14.60;;;5.07;;
51792;SDS011;37850;53.178;6.376;2023-06-10T05:56:54;12.50;;;4.85;;
51792;SDS011;37850;53.178;6.376;2023-06-10T05:59:20;11.73;;;4.97;;
51792;SDS011;37850;53.178;6.376;2023-06-10T06:01:48;15.98;;;5.20;;
51792;SDS011;37850;53.178;6.376;2023-06-10T06:04:15;15.50;;;5.75;;
51792;SDS011;37850;53.178;6.376;2023-06-10T06:06:41;13.40;;;4.90;;
51792;SDS011;37850;53.178;6.376;2023-06-10T06:09:06;11.23;;;4.45;;
51792;SDS011;37850;53.178;6.376;2023-06-10T06:11:33;12.05;;;5.20;;
51792;SDS011;37850;53.178;6.376;2023-06-10T06:14:00;15.07;;;5.10;;
51792;SDS011;37850;53.178;6.376;2023-06-10T06:16:25;12.15;;;4.68;;
51792;SDS011;37850;53.178;6.376;2023-06-10T06:18:51;10.48;;;4.72;;
51792;SDS011;37850;53.178;6.376;2023-06-10T06:21:17;11.63;;;4.70;;
51792;SDS011;37850;53.178;6.376;2023-06-10T06:23:42;11.95;;;5.32;;
51792;SDS011;37850;53.178;6.376;2023-06-10T06:26:08;12.15;;;4.80;;
51792;SDS011;37850;53.178;6.376;2023-06-10T06:28:34;13.23;;;5.32;;
51792;SDS011;37850;53.178;6.376;2023-06-10T06:31:00;12.77;;;5.20;;
51792;SDS011;37850;53.178;6.376;2023-06-10T06:33:26;11.63;;;5.05;;
51792;SDS011;37850;53.178;6.376;2023-06-10T06:35:52;9.23;;;4.53;;
51792;SDS011;37850;53.178;6.376;2023-06-10T06:38:18;11.32;;;5.28;;
51792;SDS011;37850;53.178;6.376;2023-06-10T06:40:43;12.48;;;4.78;;
51792;SDS011;37850;53.178;6.376;2023-06-10T06:43:09;15.10;;;5.38;;
51792;SDS011;37850;53.178;6.376;2023-06-10T06:45:35;11.85;;;4.57;;
51792;SDS011;37850;53.178;6.376;2023-06-10T06:48:00;13.40;;;4.80;;
51792;SDS011;37850;53.178;6.376;2023-06-10T06:50:26;10.32;;;5.22;;
51792;SDS011;37850;53.178;6.376;2023-06-10T06:52:52;12.38;;;4.50;;
51792;SDS011;37850;53.178;6.376;2023-06-10T06:55:18;13.45;;;4.90;;
51792;SDS011;37850;53.178;6.376;2023-06-10T06:57:44;12.52;;;4.68;;
51792;SDS011;37850;53.178;6.376;2023-06-10T07:00:10;14.85;;;5.30;;
51792;SDS011;37850;53.178;6.376;2023-06-10T07:02:36;14.85;;;4.65;;
51792;SDS011;37850;53.178;6.376;2023-06-10T07:05:02;13.77;;;4.47;;
51792;SDS011;37850;53.178;6.376;2023-06-10T07:07:28;12.57;;;4.80;;
51792;SDS011;37850;53.178;6.376;2023-06-10T07:09:54;10.73;;;4.38;;
51792;SDS011;37850;53.178;6.376;2023-06-10T07:12:20;12.93;;;4.28;;
51792;SDS011;37850;53.178;6.376;2023-06-10T07:14:49;12.82;;;4.68;;
51792;SDS011;37850;53.178;6.376;2023-06-10T07:17:15;12.68;;;5.10;;
51792;SDS011;37850;53.178;6.376;2023-06-10T07:19:42;11.75;;;4.70;;
51792;SDS011;37850;53.178;6.376;2023-06-10T07:22:09;11.57;;;4.45;;
51792;SDS011;37850;53.178;6.376;2023-06-10T07:24:35;8.50;;;4.05;;
51792;SDS011;37850;53.178;6.376;2023-06-10T07:27:00;11.30;;;4.50;;
51792;SDS011;37850;53.178;6.376;2023-06-10T07:29:26;11.38;;;4.65;;
51792;SDS011;37850;53.178;6.376;2023-06-10T07:31:52;10.43;;;4.57;;
51792;SDS011;37850;53.178;6.376;2023-06-10T07:34:18;10.40;;;4.97;;
51792;SDS011;37850;53.178;6.376;2023-06-10T07:36:44;9.80;;;4.13;;
51792;SDS011;37850;53.178;6.376;2023-06-10T07:39:10;11.63;;;4.35;;
51792;SDS011;37850;53.178;6.376;2023-06-10T07:41:36;10.32;;;4.45;;
51792;SDS011;37850;53.178;6.376;2023-06-10T07:44:02;9.13;;;3.88;;
51792;SDS011;37850;53.178;6.376;2023-06-10T07:46:28;11.85;;;4.60;;
51792;SDS011;37850;53.178;6.376;2023-06-10T07:48:54;13.55;;;4.22;;
51792;SDS011;37850;53.178;6.376;2023-06-10T07:51:20;8.35;;;3.67;;
51792;SDS011;37850;53.178;6.376;2023-06-10T07:53:46;9.32;;;4.20;;
51792;SDS011;37850;53.178;6.376;2023-06-10T07:56:12;8.43;;;4.13;;
51792;SDS011;37850;53.178;6.376;2023-06-10T07:58:38;8.35;;;4.18;;
51792;SDS011;37850;53.178;6.376;2023-06-10T08:01:04;9.07;;;4.20;;
51792;SDS011;37850;53.178;6.376;2023-06-10T08:03:30;7.88;;;3.88;;
51792;SDS011;37850;53.178;6.376;2023-06-10T08:05:56;7.18;;;3.70;;
51792;SDS011;37850;53.178;6.376;2023-06-10T08:08:21;9.68;;;3.83;;
51792;SDS011;37850;53.178;6.376;2023-06-10T08:10:47;8.63;;;4.18;;
51792;SDS011;37850;53.178;6.376;2023-06-10T08:13:14;10.07;;;4.20;;
51792;SDS011;37850;53.178;6.376;2023-06-10T08:15:40;8.82;;;3.95;;
51792;SDS011;37850;53.178;6.376;2023-06-10T08:18:06;11.65;;;4.30;;
51792;SDS011;37850;53.178;6.376;2023-06-10T08:20:31;9.15;;;3.97;;
51792;SDS011;37850;53.178;6.376;2023-06-10T08:22:57;11.50;;;4.40;;
51792;SDS011;37850;53.178;6.376;2023-06-10T08:25:23;11.35;;;4.10;;
51792;SDS011;37850;53.178;6.376;2023-06-10T08:27:49;9.07;;;3.63;;
51792;SDS011;37850;53.178;6.376;2023-06-10T08:30:15;9.50;;;4.43;;
51792;SDS011;37850;53.178;6.376;2023-06-10T08:32:42;8.55;;;3.85;;
51792;SDS011;37850;53.178;6.376;2023-06-10T08:35:07;8.55;;;3.90;;
51792;SDS011;37850;53.178;6.376;2023-06-10T08:37:33;9.43;;;3.88;;
51792;SDS011;37850;53.178;6.376;2023-06-10T08:39:59;7.75;;;3.40;;
51792;SDS011;37850;53.178;6.376;2023-06-10T08:42:28;11.10;;;4.35;;
51792;SDS011;37850;53.178;6.376;2023-06-10T08:44:58;10.52;;;3.58;;
51792;SDS011;37850;53.178;6.376;2023-06-10T08:47:28;9.07;;;3.33;;
51792;SDS011;37850;53.178;6.376;2023-06-10T08:49:56;9.43;;;3.90;;
51792;SDS011;37850;53.178;6.376;2023-06-10T08:52:28;9.95;;;3.38;;
51792;SDS011;37850;53.178;6.376;2023-06-10T08:55:04;8.75;;;4.28;;
51792;SDS011;37850;53.178;6.376;2023-06-10T08:57:35;11.05;;;3.97;;
51792;SDS011;37850;53.178;6.376;2023-06-10T09:00:02;8.77;;;4.00;;
51792;SDS011;37850;53.178;6.376;2023-06-10T09:02:29;10.25;;;3.67;;
51792;SDS011;37850;53.178;6.376;2023-06-10T09:05:00;8.77;;;3.30;;
51792;SDS011;37850;53.178;6.376;2023-06-10T09:07:27;8.52;;;3.83;;
51792;SDS011;37850;53.178;6.376;2023-06-10T09:09:56;8.18;;;3.53;;
51792;SDS011;37850;53.178;6.376;2023-06-10T09:12:24;9.65;;;3.78;;
51792;SDS011;37850;53.178;6.376;2023-06-10T09:14:50;9.15;;;3.40;;
51792;SDS011;37850;53.178;6.376;2023-06-10T09:17:16;9.05;;;3.85;;
51792;SDS011;37850;53.178;6.376;2023-06-10T09:19:42;7.57;;;3.15;;
51792;SDS011;37850;53.178;6.376;2023-06-10T09:22:10;7.45;;;3.33;;
51792;SDS011;37850;53.178;6.376;2023-06-10T09:24:36;8.00;;;3.30;;
51792;SDS011;37850;53.178;6.376;2023-06-10T09:27:06;10.70;;;3.85;;
51792;SDS011;37850;53.178;6.376;2023-06-10T09:32:31;10.05;;;3.42;;
51792;SDS011;37850;53.178;6.376;2023-06-10T09:35:03;7.40;;;3.63;;
51792;SDS011;37850;53.178;6.376;2023-06-10T09:37:34;10.43;;;3.10;;
51792;SDS011;37850;53.178;6.376;2023-06-10T09:40:04;8.10;;;3.55;;
51792;SDS011;37850;53.178;6.376;2023-06-10T09:42:37;7.90;;;3.20;;
51792;SDS011;37850;53.178;6.376;2023-06-10T09:45:04;6.95;;;3.03;;
51792;SDS011;37850;53.178;6.376;2023-06-10T09:47:32;10.60;;;3.28;;
51792;SDS011;37850;53.178;6.376;2023-06-10T09:49:58;7.18;;;3.28;;
51792;SDS011;37850;53.178;6.376;2023-06-10T09:52:24;8.38;;;3.25;;
51792;SDS011;37850;53.178;6.376;2023-06-10T09:54:51;8.68;;;3.30;;
51792;SDS011;37850;53.178;6.376;2023-06-10T09:57:18;8.70;;;3.72;;
51792;SDS011;37850;53.178;6.376;2023-06-10T09:59:46;7.38;;;3.50;;
51792;SDS011;37850;53.178;6.376;2023-06-10T10:02:18;8.43;;;3.20;;
51792;SDS011;37850;53.178;6.376;2023-06-10T10:04:44;7.40;;;3.50;;
51792;SDS011;37850;53.178;6.376;2023-06-10T10:07:10;8.88;;;3.03;;
51792;SDS011;37850;53.178;6.376;2023-06-10T10:09:37;11.10;;;3.40;;
51792;SDS011;37850;53.178;6.376;2023-06-10T10:12:09;11.40;;;3.97;;
51792;SDS011;37850;53.178;6.376;2023-06-10T10:14:37;8.63;;;3.42;;
51792;SDS011;37850;53.178;6.376;2023-06-10T10:17:10;9.35;;;3.33;;
51792;SDS011;37850;53.178;6.376;2023-06-10T10:19:50;8.43;;;3.53;;
51792;SDS011;37850;53.178;6.376;2023-06-10T10:22:20;8.75;;;3.53;;
51792;SDS011;37850;53.178;6.376;2023-06-10T10:24:52;7.57;;;3.40;;
51792;SDS011;37850;53.178;6.376;2023-06-10T10:27:22;11.75;;;3.92;;
51792;SDS011;37850;53.178;6.376;2023-06-10T10:29:55;7.13;;;3.00;;
51792;SDS011;37850;53.178;6.376;2023-06-10T10:32:35;8.38;;;3.20;;
51792;SDS011;37850;53.178;6.376;2023-06-10T10:35:08;10.15;;;3.13;;
51792;SDS011;37850;53.178;6.376;2023-06-10T10:37:38;8.20;;;3.30;;
51792;SDS011;37850;53.178;6.376;2023-06-10T10:40:04;8.95;;;3.67;;
51792;SDS011;37850;53.178;6.376;2023-06-10T10:42:32;9.23;;;2.78;;
51792;SDS011;37850;53.178;6.376;2023-06-10T10:44:58;6.70;;;3.50;;
51792;SDS011;37850;53.178;6.376;2023-06-10T10:47:25;9.07;;;3.40;;
51792;SDS011;37850;53.178;6.376;2023-06-10T10:49:54;8.87;;;2.90;;
51792;SDS011;37850;53.178;6.376;2023-06-10T10:52:24;7.97;;;2.75;;
51792;SDS011;37850;53.178;6.376;2023-06-10T10:54:50;7.10;;;3.00;;
51792;SDS011;37850;53.178;6.376;2023-06-10T10:57:20;9.88;;;3.47;;
51792;SDS011;37850;53.178;6.376;2023-06-10T11:05:00;7.47;;;2.72;;
51792;SDS011;37850;53.178;6.376;2023-06-10T11:07:30;7.68;;;2.83;;
51792;SDS011;37850;53.178;6.376;2023-06-10T11:10:09;6.32;;;2.78;;
51792;SDS011;37850;53.178;6.376;2023-06-10T11:15:11;7.82;;;2.78;;
51792;SDS011;37850;53.178;6.376;2023-06-10T11:17:38;8.15;;;3.00;;
51792;SDS011;37850;53.178;6.376;2023-06-10T11:26:21;11.20;;;4.13;;
51792;SDS011;37850;53.178;6.376;2023-06-10T11:31:31;9.93;;;3.30;;
51792;SDS011;37850;53.178;6.376;2023-06-10T11:34:08;9.68;;;3.15;;
51792;SDS011;37850;53.178;6.376;2023-06-10T11:36:36;5.47;;;3.05;;
51792;SDS011;37850;53.178;6.376;2023-06-10T11:39:05;6.60;;;3.05;;
51792;SDS011;37850;53.178;6.376;2023-06-10T11:41:32;10.18;;;3.13;;
51792;SDS011;37850;53.178;6.376;2023-06-10T11:44:03;9.18;;;3.13;;
51792;SDS011;37850;53.178;6.376;2023-06-10T11:46:32;7.78;;;3.42;;
51792;SDS011;37850;53.178;6.376;2023-06-10T11:48:59;7.45;;;3.15;;
51792;SDS011;37850;53.178;6.376;2023-06-10T11:51:25;9.35;;;3.30;;
51792;SDS011;37850;53.178;6.376;2023-06-10T11:53:52;8.77;;;3.28;;
51792;SDS011;37850;53.178;6.376;2023-06-10T11:56:22;11.85;;;3.30;;
51792;SDS011;37850;53.178;6.376;2023-06-10T11:58:55;7.35;;;2.80;;
51792;SDS011;37850;53.178;6.376;2023-06-10T12:01:23;8.75;;;3.17;;
51792;SDS011;37850;53.178;6.376;2023-06-10T12:03:57;8.68;;;2.88;;
51792;SDS011;37850;53.178;6.376;2023-06-10T12:06:37;8.98;;;3.28;;
51792;SDS011;37850;53.178;6.376;2023-06-10T12:09:43;6.53;;;2.75;;
51792;SDS011;37850;53.178;6.376;2023-06-10T12:12:02;9.20;;;3.28;;
51792;SDS011;37850;53.178;6.376;2023-06-10T12:19:57;10.73;;;3.30;;
51792;SDS011;37850;53.178;6.376;2023-06-10T12:22:24;7.45;;;2.92;;
51792;SDS011;37850;53.178;6.376;2023-06-10T12:27:28;7.47;;;3.30;;
51792;SDS011;37850;53.178;6.376;2023-06-10T12:29:55;9.05;;;3.25;;
51792;SDS011;37850;53.178;6.376;2023-06-10T12:32:42;8.02;;;2.72;;
51792;SDS011;37850;53.178;6.376;2023-06-10T12:35:19;8.25;;;3.15;;
51792;SDS011;37850;53.178;6.376;2023-06-10T12:37:57;8.55;;;3.03;;
51792;SDS011;37850;53.178;6.376;2023-06-10T12:40:27;7.18;;;3.33;;
51792;SDS011;37850;53.178;6.376;2023-06-10T12:43:01;8.68;;;3.30;;
51792;SDS011;37850;53.178;6.376;2023-06-10T12:45:31;9.65;;;2.78;;
51792;SDS011;37850;53.178;6.376;2023-06-10T12:48:10;7.63;;;2.72;;
51792;SDS011;37850;53.178;6.376;2023-06-10T12:50:49;7.00;;;2.88;;
51792;SDS011;37850;53.178;6.376;2023-06-10T12:53:23;7.72;;;2.90;;
51792;SDS011;37850;53.178;6.376;2023-06-10T12:55:51;12.68;;;3.20;;
51792;SDS011;37850;53.178;6.376;2023-06-10T12:58:19;8.70;;;3.15;;
51792;SDS011;37850;53.178;6.376;2023-06-10T13:00:45;6.90;;;2.75;;
51792;SDS011;37850;53.178;6.376;2023-06-10T13:03:11;8.57;;;2.90;;
51792;SDS011;37850;53.178;6.376;2023-06-10T13:05:36;8.77;;;3.00;;
51792;SDS011;37850;53.178;6.376;2023-06-10T13:08:07;9.80;;;3.67;;
51792;SDS011;37850;53.178;6.376;2023-06-10T13:10:35;8.00;;;3.15;;
51792;SDS011;37850;53.178;6.376;2023-06-10T13:13:02;8.20;;;2.95;;
51792;SDS011;37850;53.178;6.376;2023-06-10T13:15:31;8.05;;;3.17;;
51792;SDS011;37850;53.178;6.376;2023-06-10T13:18:00;7.53;;;2.90;;
51792;SDS011;37850;53.178;6.376;2023-06-10T13:20:26;11.77;;;3.45;;
51792;SDS011;37850;53.178;6.376;2023-06-10T13:22:51;7.55;;;3.35;;
51792;SDS011;37850;53.178;6.376;2023-06-10T13:25:17;9.50;;;3.83;;
51792;SDS011;37850;53.178;6.376;2023-06-10T13:27:43;11.43;;;3.65;;
51792;SDS011;37850;53.178;6.376;2023-06-10T13:30:09;14.23;;;3.50;;
51792;SDS011;37850;53.178;6.376;2023-06-10T13:32:36;9.63;;;3.42;;
51792;SDS011;37850;53.178;6.376;2023-06-10T13:35:02;10.30;;;3.30;;
51792;SDS011;37850;53.178;6.376;2023-06-10T13:37:28;9.18;;;3.72;;
51792;SDS011;37850;53.178;6.376;2023-06-10T13:39:54;9.88;;;3.47;;
51792;SDS011;37850;53.178;6.376;2023-06-10T13:42:20;7.07;;;3.05;;
51792;SDS011;37850;53.178;6.376;2023-06-10T13:44:49;7.85;;;3.10;;
51792;SDS011;37850;53.178;6.376;2023-06-10T13:47:15;7.80;;;3.17;;
51792;SDS011;37850;53.178;6.376;2023-06-10T13:49:41;9.02;;;3.70;;
51792;SDS011;37850;53.178;6.376;2023-06-10T13:52:07;7.00;;;3.15;;
51792;SDS011;37850;53.178;6.376;2023-06-10T13:54:33;7.90;;;2.92;;
51792;SDS011;37850;53.178;6.376;2023-06-10T13:57:01;9.77;;;3.08;;
51792;SDS011;37850;53.178;6.376;2023-06-10T13:59:27;10.15;;;4.15;;
51792;SDS011;37850;53.178;6.376;2023-06-10T14:01:52;8.50;;;2.90;;
51792;SDS011;37850;53.178;6.376;2023-06-10T14:04:18;12.20;;;3.15;;
51792;SDS011;37850;53.178;6.376;2023-06-10T14:06:44;9.93;;;3.30;;
51792;SDS011;37850;53.178;6.376;2023-06-10T14:09:10;8.57;;;3.08;;
51792;SDS011;37850;53.178;6.376;2023-06-10T14:11:38;6.88;;;3.30;;
51792;SDS011;37850;53.178;6.376;2023-06-10T14:14:03;8.45;;;3.20;;
51792;SDS011;37850;53.178;6.376;2023-06-10T14:16:29;7.30;;;3.45;;
51792;SDS011;37850;53.178;6.376;2023-06-10T14:18:55;7.13;;;2.63;;
51792;SDS011;37850;53.178;6.376;2023-06-10T14:21:20;8.30;;;3.13;;
51792;SDS011;37850;53.178;6.376;2023-06-10T14:23:46;7.75;;;3.20;;
51792;SDS011;37850;53.178;6.376;2023-06-10T14:26:14;7.35;;;3.00;;
51792;SDS011;37850;53.178;6.376;2023-06-10T14:28:39;6.35;;;2.97;;
51792;SDS011;37850;53.178;6.376;2023-06-10T14:31:05;7.00;;;3.13;;
51792;SDS011;37850;53.178;6.376;2023-06-10T14:33:32;7.40;;;2.85;;
51792;SDS011;37850;53.178;6.376;2023-06-10T14:35:58;8.98;;;2.90;;
51792;SDS011;37850;53.178;6.376;2023-06-10T14:38:24;7.93;;;2.80;;
51792;SDS011;37850;53.178;6.376;2023-06-10T14:40:50;6.95;;;2.60;;
51792;SDS011;37850;53.178;6.376;2023-06-10T14:43:15;6.97;;;2.90;;
51792;SDS011;37850;53.178;6.376;2023-06-10T14:45:41;4.85;;;2.40;;
51792;SDS011;37850;53.178;6.376;2023-06-10T14:48:08;7.10;;;2.67;;
51792;SDS011;37850;53.178;6.376;2023-06-10T14:50:37;7.60;;;2.75;;
51792;SDS011;37850;53.178;6.376;2023-06-10T14:53:05;6.20;;;2.60;;
51792;SDS011;37850;53.178;6.376;2023-06-10T14:55:31;10.55;;;2.67;;
51792;SDS011;37850;53.178;6.376;2023-06-10T14:57:56;8.35;;;2.65;;
51792;SDS011;37850;53.178;6.376;2023-06-10T15:00:23;7.50;;;2.80;;
51792;SDS011;37850;53.178;6.376;2023-06-10T15:02:50;7.90;;;2.65;;
51792;SDS011;37850;53.178;6.376;2023-06-10T15:05:17;7.47;;;2.58;;
51792;SDS011;37850;53.178;6.376;2023-06-10T15:07:44;6.40;;;2.60;;
51792;SDS011;37850;53.178;6.376;2023-06-10T15:10:11;6.97;;;2.70;;
51792;SDS011;37850;53.178;6.376;2023-06-10T15:12:37;5.63;;;2.20;;
51792;SDS011;37850;53.178;6.376;2023-06-10T15:15:02;6.18;;;2.30;;
51792;SDS011;37850;53.178;6.376;2023-06-10T15:17:29;7.18;;;2.88;;